Time;durP1;ratioP1;P1;durP2;ratioP2;P2;SDS_P1;SDS_P2;PMS_P1;PMS_P2;Temp;Humidity;BMP_temperature;BMP_pressure;BME280_temperature;BME280_humidity;BME280_pressure;Samples;Min_cycle;Max_cycle;Signal;HPM_P1;HPM_P2
2023/04/26 00:02:08;;;;;;;0.40;0.30;;;22.40;39.80;;;;;;6346098;28;20054;-46
2023/04/26 00:05:10;;;;;;;0.60;0.30;;;22.60;40.00;;;;;;6346684;28;20083;-45
2023/04/26 00:08:12;;;;;;;0.90;0.25;;;22.50;39.90;;;;;;6346284;28;20110;-46
2023/04/26 00:11:13;;;;;;;0.20;0.20;;;22.20;39.80;;;;;;6346110;28;20044;-50
2023/04/26 00:14:15;;;;;;;0.35;0.30;;;22.50;39.90;;;;;;6346450;28;20087;-47
2023/04/26 00:17:18;;;;;;;0.20;0.20;;;22.40;40.00;;;;;;6346225;28;20131;-47
2023/04/26 00:20:20;;;;;;;0.50;0.30;;;22.30;40.00;;;;;;6346906;28;20491;-49
2023/04/26 00:23:22;;;;;;;0.40;0.32;;;22.40;40.00;;;;;;6346489;28;20036;-49
2023/04/26 00:26:23;;;;;;;0.40;0.30;;;22.60;40.20;;;;;;6328284;28;20035;-49
2023/04/26 00:29:25;;;;;;;0.60;0.50;;;22.60;40.20;;;;;;6346559;28;20066;-49
2023/04/26 00:32:30;;;;;;;0.35;0.30;;;22.40;40.20;;;;;;6346236;28;20096;-47
2023/04/26 00:35:31;;;;;;;0.40;0.30;;;22.40;40.20;;;;;;6346148;28;20039;-49
2023/04/26 00:38:33;;;;;;;;;;;22.50;40.30;;;;;;6346276;28;20047;-51
2023/04/26 00:41:34;;;;;;;0.40;0.30;;;22.50;40.30;;;;;;6346206;28;19919;-50
2023/04/26 00:44:39;;;;;;;0.40;0.30;;;22.40;40.20;;;;;;6345987;28;20043;-50
2023/04/26 00:47:41;;;;;;;0.60;0.40;;;22.50;40.30;;;;;;6348310;28;20402;-48
2023/04/26 00:50:43;;;;;;;0.30;0.30;;;22.40;40.40;;;;;;6349464;28;20449;-47
2023/04/26 00:53:45;;;;;;;0.35;0.30;;;22.20;40.30;;;;;;6350252;28;20039;-47
2023/04/26 00:56:51;;;;;;;0.68;0.40;;;22.50;40.50;;;;;;6349851;28;20050;-49
2023/04/26 00:59:53;;;;;;;0.45;0.45;;;22.30;40.30;;;;;;6350365;28;20051;-51
2023/04/26 01:02:55;;;;;;;;;;;22.40;40.50;;;;;;6333409;22;20052;-42
2023/04/26 01:05:57;;;;;;;0.20;0.20;;;23.10;40.90;;;;;;6300480;28;20345;-41
2023/04/26 01:09:01;;;;;;;0.70;0.38;;;22.30;40.50;;;;;;6299625;28;20036;-41
2023/04/26 01:12:06;;;;;;;0.40;0.30;;;22.00;40.40;;;;;;6265694;28;20052;-41
2023/04/26 01:15:10;;;;;;;0.30;0.30;;;22.00;40.40;;;;;;6299559;28;20038;-42
2023/04/26 01:18:12;;;;;;;0.38;0.30;;;22.20;40.60;;;;;;6299260;28;20045;-41
2023/04/26 01:21:20;;;;;;;0.82;0.50;;;22.20;40.60;;;;;;6299657;28;20150;-43
2023/04/26 01:24:24;;;;;;;0.50;0.30;;;22.10;40.60;;;;;;6299602;28;20488;-41
2023/04/26 01:27:28;;;;;;;0.30;0.30;;;22.20;40.60;;;;;;6299402;28;20447;-42
2023/04/26 01:30:29;;;;;;;0.28;0.28;;;22.30;40.70;;;;;;6299353;28;20044;-42
2023/04/26 01:33:31;;;;;;;0.40;0.30;;;22.20;40.70;;;;;;6299124;28;20059;-43
2023/04/26 01:36:32;;;;;;;;;;;22.20;40.70;;;;;;6299646;28;20412;-42
2023/04/26 01:39:35;;;;;;;0.43;0.40;;;22.10;40.80;;;;;;6281267;28;20295;-42
2023/04/26 01:42:37;;;;;;;0.73;0.40;;;22.20;40.70;;;;;;6299327;28;20048;-42
2023/04/26 01:45:38;;;;;;;0.40;0.30;;;22.10;40.70;;;;;;6299420;28;20047;-41
2023/04/26 01:48:53;;;;;;;0.30;0.20;;;22.10;40.70;;;;;;6298747;28;20041;-41
2023/04/26 01:51:58;;;;;;;0.30;0.30;;;22.10;40.80;;;;;;6299198;28;20041;-41
2023/04/26 01:55:00;;;;;;;0.30;0.25;;;22.10;40.80;;;;;;6281358;28;20098;-42
2023/04/26 01:58:01;;;;;;;0.20;0.20;;;22.00;40.80;;;;;;6298438;28;20036;-41
2023/04/26 02:01:04;;;;;;;;;;;22.10;40.90;;;;;;6299523;28;20048;-43
2023/04/26 02:04:06;;;;;;;0.30;0.30;;;22.10;40.90;;;;;;6298842;28;19920;-41
2023/04/26 02:07:07;;;;;;;0.70;0.52;;;22.40;41.00;;;;;;6298609;28;20500;-42
2023/04/26 02:10:09;;;;;;;;;;;22.00;40.80;;;;;;6299458;28;20377;-41
2023/04/26 02:13:11;;;;;;;0.30;0.30;;;22.40;41.10;;;;;;6298644;28;20425;-42
2023/04/26 02:16:14;;;;;;;;;;;22.30;41.10;;;;;;6298889;28;20067;-42
2023/04/26 02:19:16;;;;;;;0.40;0.30;;;21.90;40.90;;;;;;6298960;28;19920;-41
2023/04/26 02:22:17;;;;;;;;;;;21.90;40.90;;;;;;6299041;28;20047;-41
2023/04/26 02:25:20;;;;;;;0.25;0.25;;;22.00;41.10;;;;;;6298420;28;19921;-41
2023/04/26 02:28:21;;;;;;;0.22;0.20;;;21.90;40.90;;;;;;6298610;28;20052;-42
2023/04/26 02:31:24;;;;;;;;;;;22.00;41.00;;;;;;6297714;28;20094;-41
2023/04/26 02:34:26;;;;;;;0.30;0.30;;;22.00;41.20;;;;;;6297975;28;19920;-41
2023/04/26 02:37:28;;;;;;;0.30;0.22;;;22.30;41.20;;;;;;6298305;28;20044;-43
2023/04/26 02:40:31;;;;;;;0.40;0.40;;;22.00;41.10;;;;;;6297998;28;20094;-43
2023/04/26 02:43:32;;;;;;;0.30;0.28;;;22.00;41.10;;;;;;6298357;28;20055;-42
2023/04/26 02:46:34;;;;;;;0.40;0.40;;;22.00;41.20;;;;;;6298206;28;20507;-41
2023/04/26 02:49:35;;;;;;;0.20;0.20;;;22.00;41.20;;;;;;6298301;28;20060;-41
2023/04/26 02:52:37;;;;;;;;;;;21.90;41.20;;;;;;6298194;28;20044;-41
2023/04/26 02:55:39;;;;;;;0.20;0.20;;;22.20;41.50;;;;;;6298155;28;19920;-41
2023/04/26 02:58:42;;;;;;;0.40;0.30;;;22.10;41.30;;;;;;6297679;28;20049;-42
2023/04/26 03:01:44;;;;;;;0.40;0.22;;;21.90;41.20;;;;;;6298179;28;20044;-41
2023/04/26 03:04:46;;;;;;;0.20;0.20;;;22.00;41.30;;;;;;6297959;28;20045;-41
2023/04/26 03:07:47;;;;;;;0.30;0.30;;;22.00;41.40;;;;;;6297724;28;20040;-41
2023/04/26 03:10:50;;;;;;;0.40;0.40;;;22.10;41.50;;;;;;6296515;28;20583;-43
2023/04/26 03:13:51;;;;;;;0.40;0.40;;;22.00;41.40;;;;;;6297814;28;20127;-41
2023/04/26 03:16:53;;;;;;;;;;;22.20;41.50;;;;;;6297830;28;20518;-41
2023/04/26 03:19:54;;;;;;;;;;;21.90;41.50;;;;;;6279224;28;19927;-41
2023/04/26 03:22:56;;;;;;;0.20;0.20;;;22.00;41.50;;;;;;6297506;28;19921;-44
2023/04/26 03:25:58;;;;;;;;;;;22.10;41.50;;;;;;6297792;28;20044;-42
2023/04/26 03:29:00;;;;;;;0.20;0.20;;;21.80;41.50;;;;;;6298112;28;19921;-42
2023/04/26 03:32:02;;;;;;;0.40;0.40;;;21.80;41.50;;;;;;6297639;28;20048;-44
2023/04/26 03:35:04;;;;;;;0.40;0.40;;;21.80;41.50;;;;;;6297019;28;20041;-43
2023/04/26 03:38:06;;;;;;;0.30;0.30;;;21.90;41.50;;;;;;6297046;28;20067;-42
2023/04/26 03:41:08;;;;;;;;;;;21.80;41.60;;;;;;6298092;28;20052;-42
2023/04/26 03:44:11;;;;;;;0.30;0.20;;;22.20;41.80;;;;;;6297490;28;19927;-42
2023/04/26 03:47:14;;;;;;;0.40;0.20;;;21.90;41.70;;;;;;6297915;28;20123;-41
2023/04/26 03:50:16;;;;;;;0.25;0.25;;;21.90;41.70;;;;;;6279913;28;20135;-42
2023/04/26 03:53:17;;;;;;;;;;;21.90;41.80;;;;;;6297486;28;20372;-41
2023/04/26 03:56:20;;;;;;;0.20;0.20;;;21.90;41.90;;;;;;6296652;28;19920;-42
2023/04/26 03:59:22;;;;;;;0.30;0.30;;;21.90;41.80;;;;;;6296521;28;20045;-42
2023/04/26 04:02:24;;;;;;;0.30;0.30;;;21.90;41.80;;;;;;6296839;28;20047;-41
2023/04/26 04:05:26;;;;;;;0.32;0.25;;;21.90;41.90;;;;;;6296567;28;20037;-41
2023/04/26 04:08:28;;;;;;;0.50;0.40;;;21.80;41.80;;;;;;6296414;28;20049;-41
2023/04/26 04:11:32;;;;;;;;;;;21.90;41.90;;;;;;6296960;28;20113;-41
2023/04/26 04:14:33;;;;;;;0.35;0.35;;;22.30;42.20;;;;;;6296516;28;19973;-41
2023/04/26 04:17:35;;;;;;;;;;;21.80;41.90;;;;;;6296708;28;20048;-43
2023/04/26 04:20:40;;;;;;;0.20;0.20;;;21.90;42.10;;;;;;6298322;28;19920;-42
2023/04/26 04:23:43;;;;;;;0.30;0.20;;;21.80;41.90;;;;;;6300736;28;20044;-42
2023/04/26 04:26:46;;;;;;;0.30;0.22;;;21.90;42.00;;;;;;6283103;28;20040;-41
2023/04/26 04:29:48;;;;;;;0.55;0.28;;;21.90;42.60;;;;;;6301027;28;20446;-41
2023/04/26 04:32:49;;;;;;;;;;;21.90;42.10;;;;;;6301114;28;20044;-41
2023/04/26 04:35:51;;;;;;;0.38;0.20;;;22.20;42.40;;;;;;6300454;28;19920;-41
2023/04/26 04:38:55;;;;;;;0.30;0.25;;;21.80;42.10;;;;;;6301167;28;20040;-42
2023/04/26 04:41:59;;;;;;;0.30;0.30;;;21.80;42.10;;;;;;6300449;28;20052;-42
2023/04/26 04:45:04;;;;;;;0.40;0.40;;;21.70;42.10;;;;;;6282155;28;20051;-42
2023/04/26 04:48:08;;;;;;;0.98;0.40;;;21.70;42.10;;;;;;6300816;28;20041;-41
2023/04/26 04:51:10;;;;;;;0.32;0.20;;;21.90;42.20;;;;;;6299888;28;20057;-41
2023/04/26 04:54:13;;;;;;;0.43;0.40;;;21.80;42.30;;;;;;6300148;28;20048;-41
2023/04/26 04:57:17;;;;;;;0.60;0.30;;;21.70;42.20;;;;;;6266170;28;20037;-41
2023/04/26 05:00:21;;;;;;;0.30;0.30;;;21.70;42.20;;;;;;6299737;28;20135;-41
2023/04/26 05:03:28;;;;;;;0.30;0.20;;;21.60;42.20;;;;;;6299889;28;20045;-41
2023/04/26 05:06:31;;;;;;;0.35;0.30;;;21.80;42.40;;;;;;6299983;28;20067;-41
2023/04/26 05:09:32;;;;;;;1.73;0.30;;;22.10;43.10;;;;;;6299772;28;20408;-41
2023/04/26 05:12:35;;;;;;;0.52;0.38;;;21.70;42.40;;;;;;6299841;28;20411;-42
2023/04/26 05:15:40;;;;;;;0.45;0.40;;;21.90;42.50;;;;;;6299785;28;20044;-44
2023/04/26 05:18:42;;;;;;;1.67;0.30;;;21.80;42.50;;;;;;6299372;28;20356;-41
2023/04/26 05:21:44;;;;;;;0.73;0.40;;;21.80;42.60;;;;;;6300094;28;20114;-42
2023/04/26 05:24:49;;;;;;;0.40;0.40;;;21.70;42.60;;;;;;6299706;28;20128;-42
2023/04/26 05:27:54;;;;;;;0.45;0.38;;;22.00;42.50;;;;;;6282962;28;20045;-42
2023/04/26 05:31:08;;;;;;;0.30;0.30;;;21.70;42.50;;;;;;6299650;28;20083;-41
2023/04/26 05:34:23;;;;;;;0.60;0.50;;;21.70;42.60;;;;;;6282858;28;20047;-41
2023/04/26 05:37:30;;;;;;;0.30;0.30;;;22.00;42.90;;;;;;6299160;28;20537;-42
2023/04/26 05:40:32;;;;;;;1.02;0.70;;;21.80;42.90;;;;;;6299351;28;20103;-41
2023/04/26 05:43:37;;;;;;;3.75;1.15;;;21.60;42.90;;;;;;6299680;28;20044;-42
2023/04/26 05:46:40;;;;;;;1.13;0.88;;;21.60;43.10;;;;;;6299090;28;20074;-42
2023/04/26 05:49:43;;;;;;;1.25;0.88;;;21.60;43.20;;;;;;6298955;28;20115;-41
2023/04/26 05:52:46;;;;;;;1.92;1.00;;;21.60;43.30;;;;;;6299202;28;20070;-42
2023/04/26 05:55:47;;;;;;;1.67;1.05;;;21.60;43.50;;;;;;6299888;28;20052;-42
2023/04/26 05:58:51;;;;;;;1.05;0.80;;;21.60;43.70;;;;;;6298592;28;20523;-42
2023/04/26 06:01:53;;;;;;;0.80;0.60;;;21.50;43.60;;;;;;6281163;28;20048;-41
2023/04/26 06:04:55;;;;;;;2.47;0.60;;;21.60;43.80;;;;;;6298778;28;20037;-41
2023/04/26 06:07:57;;;;;;;0.85;0.60;;;21.80;44.00;;;;;;6298471;28;20056;-41
2023/04/26 06:11:02;;;;;;;0.75;0.55;;;21.60;43.90;;;;;;6280639;28;20041;-42
2023/04/26 06:14:04;;;;;;;0.45;0.43;;;22.00;44.20;;;;;;6298412;28;20449;-42
2023/04/26 06:17:06;;;;;;;0.60;0.50;;;21.50;44.00;;;;;;6298490;28;20471;-42
2023/04/26 06:20:11;;;;;;;0.95;0.40;;;21.70;44.10;;;;;;6298751;28;20052;-42
2023/04/26 06:23:13;;;;;;;0.70;0.60;;;21.60;44.10;;;;;;6298418;28;20043;-46
2023/04/26 06:26:15;;;;;;;0.95;0.40;;;21.80;44.30;;;;;;6298908;28;20037;-41
2023/04/26 06:29:20;;;;;;;;;;;21.60;44.20;;;;;;6299730;28;20392;-42
2023/04/26 06:32:25;;;;;;;0.80;0.50;;;21.70;44.40;;;;;;6298592;28;19928;-40
2023/04/26 06:35:28;;;;;;;0.68;0.40;;;21.50;44.20;;;;;;6298269;28;20136;-41
2023/04/26 06:38:30;;;;;;;0.47;0.40;;;21.60;44.30;;;;;;6298650;28;20051;-44
2023/04/26 06:41:32;;;;;;;0.60;0.52;;;21.60;44.40;;;;;;6298150;28;20051;-43
2023/04/26 06:44:34;;;;;;;;;;;21.60;44.50;;;;;;6297094;28;20041;-45
2023/04/26 06:47:39;;;;;;;0.30;0.28;;;21.50;44.50;;;;;;6297996;28;19920;-45
2023/04/26 06:50:41;;;;;;;0.63;0.40;;;21.50;44.40;;;;;;6297662;28;20514;-44
2023/04/26 06:53:45;;;;;;;2.17;0.50;;;21.70;45.20;;;;;;6297610;28;20151;-45
2023/04/26 06:56:46;;;;;;;;;;;21.60;44.70;;;;;;6297811;28;20033;-47
2023/04/26 06:59:48;;;;;;;1.65;0.85;;;21.80;44.90;;;;;;6297177;28;19928;-45
2023/04/26 07:02:50;;;;;;;1.40;1.08;;;21.70;44.90;;;;;;6297184;28;20060;-44
2023/04/26 07:05:51;;;;;;;1.55;0.88;;;22.10;45.50;;;;;;6297853;28;20055;-49
2023/04/26 07:08:53;;;;;;;;;;;21.70;45.60;;;;;;6297581;28;20037;-50
2023/04/26 07:11:57;;;;;;;1.10;0.70;;;22.00;45.90;;;;;;6297386;28;19920;-44
2023/04/26 07:15:00;;;;;;;1.05;0.60;;;22.10;45.80;;;;;;6299223;28;20041;-48
2023/04/26 07:18:01;;;;;;;1.00;0.50;;;21.90;45.70;;;;;;6298641;28;20075;-44
2023/04/26 07:21:03;;;;;;;2.42;0.60;;;22.00;46.10;;;;;;6298271;28;20047;-47
2023/04/26 07:24:05;;;;;;;;;;;22.00;47.20;;;;;;6297510;28;20134;-48
2023/04/26 07:27:09;;;;;;;2.28;0.73;;;22.30;46.90;;;;;;6297150;28;20422;-46
2023/04/26 07:30:11;;;;;;;0.70;0.50;;;21.90;47.60;;;;;;6297001;28;20072;-44
2023/04/26 07:33:13;;;;;;;0.63;0.50;;;22.00;46.50;;;;;;6297673;28;20412;-46
2023/04/26 07:36:14;;;;;;;0.98;0.50;;;22.00;46.80;;;;;;6297585;28;20123;-49
2023/04/26 07:39:16;;;;;;;2.00;0.50;;;22.00;46.90;;;;;;6296662;28;20110;-45
2023/04/26 07:42:17;;;;;;;;;;;21.90;46.80;;;;;;6296702;28;20036;-48
2023/04/26 07:45:19;;;;;;;1.02;0.30;;;22.40;47.20;;;;;;6296644;28;20356;-46
2023/04/26 07:48:23;;;;;;;0.88;0.45;;;22.00;46.70;;;;;;6296090;28;20048;-45
2023/04/26 07:51:26;;;;;;;0.40;0.40;;;22.00;46.80;;;;;;6296600;28;20110;-49
2023/04/26 07:54:27;;;;;;;1.95;0.55;;;22.10;46.90;;;;;;6296791;28;20636;-47
2023/04/26 07:57:29;;;;;;;1.80;0.50;;;22.70;47.30;;;;;;6301425;28;20040;-46
2023/04/26 08:00:32;;;;;;;2.40;0.40;;;22.10;46.90;;;;;;6301141;28;20436;-43
2023/04/26 08:03:34;;;;;;;1.50;0.40;;;22.20;47.50;;;;;;6283414;28;20051;-46
2023/04/26 08:06:37;;;;;;;0.63;0.45;;;22.50;47.00;;;;;;6301477;28;20097;-47
2023/04/26 08:09:42;;;;;;;0.50;0.35;;;22.30;46.90;;;;;;6301488;28;20072;-48
2023/04/26 08:12:43;;;;;;;0.73;0.65;;;22.10;46.70;;;;;;6301633;28;20047;-47
2023/04/26 08:15:45;;;;;;;;;;;22.60;46.90;;;;;;6301617;28;20040;-42
2023/04/26 08:18:47;;;;;;;0.77;0.40;;;22.60;47.00;;;;;;6302186;28;20368;-45
2023/04/26 08:21:48;;;;;;;;;;;22.20;46.60;;;;;;6302530;28;20063;-48
2023/04/26 08:24:50;;;;;;;0.75;0.47;;;22.10;46.60;;;;;;6301933;28;20368;-45
2023/04/26 08:27:51;;;;;;;0.57;0.38;;;22.60;46.60;;;;;;6301223;28;20037;-49
2023/04/26 08:30:54;;;;;;;;;;;22.30;46.50;;;;;;6302095;28;20080;-46
2023/04/26 08:33:55;;;;;;;0.40;0.30;;;22.70;46.80;;;;;;6301197;28;20306;-46
2023/04/26 08:36:57;;;;;;;;;;;22.50;46.50;;;;;;6301558;28;20049;-44
2023/04/26 08:39:58;;;;;;;1.38;0.40;;;22.60;46.70;;;;;;6301529;28;19932;-48
2023/04/26 08:43:00;;;;;;;0.40;0.30;;;22.30;46.20;;;;;;6300863;28;20041;-48
2023/04/26 08:46:08;;;;;;;0.20;0.20;;;22.30;46.30;;;;;;6300541;28;20515;-46
2023/04/26 08:49:21;;;;;;;0.20;0.20;;;22.50;46.30;;;;;;6300998;28;20123;-46
2023/04/26 08:52:26;;;;;;;0.57;0.38;;;22.30;46.10;;;;;;6283825;28;20052;-48
2023/04/26 08:55:29;;;;;;;0.60;0.40;;;22.40;46.20;;;;;;6299896;28;20041;-45
2023/04/26 08:58:31;;;;;;;0.50;0.47;;;22.70;46.30;;;;;;6300537;28;20041;-47
2023/04/26 09:01:33;;;;;;;0.50;0.30;;;22.40;46.20;;;;;;6300594;28;20511;-46
2023/04/26 09:04:35;;;;;;;0.68;0.30;;;22.50;46.30;;;;;;6299785;28;20052;-46
2023/04/26 09:07:41;;;;;;;1.50;0.45;;;22.40;46.20;;;;;;6298320;28;20492;-46
2023/04/26 09:10:43;;;;;;;0.60;0.45;;;22.40;46.20;;;;;;6300236;28;20034;-46
2023/04/26 09:13:44;;;;;;;0.50;0.50;;;22.60;46.30;;;;;;6299568;28;20576;-46
2023/04/26 09:16:46;;;;;;;0.75;0.40;;;22.50;46.30;;;;;;6299025;28;20044;-48
2023/04/26 09:19:48;;;;;;;0.50;0.30;;;22.50;46.20;;;;;;6282039;28;20495;-46
2023/04/26 09:22:50;;;;;;;;;;;22.30;46.20;;;;;;6299631;28;20151;-48
2023/04/26 09:25:52;;;;;;;0.85;0.47;;;22.50;46.50;;;;;;6299367;28;19983;-46
2023/04/26 09:29:11;;;;;;;0.43;0.43;;;22.50;46.20;;;;;;6299538;28;20040;-45
2023/04/26 09:32:13;;;;;;;1.10;0.40;;;22.50;46.20;;;;;;6283855;28;20052;-48
2023/04/26 09:35:30;;;;;;;1.02;0.40;;;22.50;46.30;;;;;;6299642;28;20504;-50
2023/04/26 09:38:41;;;;;;;0.88;0.60;;;22.50;46.20;;;;;;6283543;28;20041;-46
2023/04/26 09:41:43;;;;;;;2.60;0.70;;;22.50;46.30;;;;;;6298855;28;20083;-46
2023/04/26 09:44:45;;;;;;;0.40;0.40;;;22.50;46.20;;;;;;6281134;28;20040;-48
2023/04/26 09:47:47;;;;;;;0.55;0.30;;;22.60;47.00;;;;;;6298935;28;20041;-46
2023/04/26 09:50:55;;;;;;;0.30;0.30;;;22.60;46.40;;;;;;6298948;28;20512;-43
2023/04/26 09:53:57;;;;;;;0.60;0.50;;;22.60;46.30;;;;;;6281205;28;20047;-42
2023/04/26 09:56:58;;;;;;;;;;;22.50;46.40;;;;;;6299583;28;20055;-44
2023/04/26 10:00:09;;;;;;;0.40;0.40;;;22.50;46.40;;;;;;6299035;28;19970;-43
2023/04/26 10:03:12;;;;;;;0.60;0.40;;;22.80;46.50;;;;;;6299562;28;20470;-46
2023/04/26 10:06:15;;;;;;;0.80;0.45;;;22.80;47.10;;;;;;6298203;28;20041;-47
2023/04/26 10:09:18;;;;;;;3.08;0.60;;;22.60;47.00;;;;;;6298414;28;20123;-46
2023/04/26 10:12:20;;;;;;;1.15;0.52;;;22.90;47.20;;;;;;6298365;28;20071;-45
2023/04/26 10:15:22;;;;;;;0.93;0.50;;;22.80;47.00;;;;;;6298267;28;20113;-48
2023/04/26 10:18:24;;;;;;;6.15;0.85;;;22.90;47.00;;;;;;6298492;28;20066;-46
2023/04/26 10:21:31;;;;;;;0.82;0.70;;;22.70;46.90;;;;;;6298235;28;20107;-45
2023/04/26 10:24:35;;;;;;;1.60;0.55;;;22.60;46.70;;;;;;6280218;28;20044;-44
2023/04/26 10:27:52;;;;;;;0.70;0.50;;;22.70;46.80;;;;;;6298320;28;20036;-44
2023/04/26 10:30:54;;;;;;;1.08;0.90;;;22.70;46.90;;;;;;6282528;28;20144;-44
2023/04/26 10:34:18;;;;;;;0.93;0.80;;;22.50;46.60;;;;;;6264497;28;20048;-44
2023/04/26 10:37:20;;;;;;;1.60;0.70;;;22.70;46.70;;;;;;6283744;28;20048;-42
2023/04/26 10:40:23;;;;;;;;;;;22.90;47.00;;;;;;6299037;28;20053;-47
2023/04/26 10:43:28;;;;;;;1.13;0.80;;;23.10;47.00;;;;;;6298175;28;20341;-45
2023/04/26 10:46:35;;;;;;;0.68;0.60;;;22.60;46.60;;;;;;6298022;28;20041;-46
2023/04/26 10:49:47;;;;;;;0.80;0.60;;;22.70;46.90;;;;;;6298093;28;20507;-45
2023/04/26 10:53:04;;;;;;;0.55;0.50;;;22.60;46.90;;;;;;6298032;28;20051;-46
2023/04/26 10:56:06;;;;;;;0.68;0.52;;;22.60;47.00;;;;;;6297401;28;20102;-46
2023/04/26 10:59:08;;;;;;;;;;;22.60;47.10;;;;;;6297794;28;20068;-47
2023/04/26 11:02:43;;;;;;;0.70;0.60;;;23.00;47.40;;;;;;6268590;28;20214;-45
2023/04/26 11:05:52;;;;;;;0.90;0.50;;;22.60;47.10;;;;;;6297380;28;20036;-45
2023/04/26 11:08:54;;;;;;;0.60;0.50;;;23.00;47.30;;;;;;6263571;28;20048;-46
2023/04/26 11:11:57;;;;;;;0.80;0.50;;;22.90;46.60;;;;;;6296873;28;20104;-44
2023/04/26 11:15:00;;;;;;;0.90;0.52;;;22.80;47.40;;;;;;6296761;28;20044;-44
2023/04/26 11:18:02;;;;;;;0.50;0.50;;;22.60;47.30;;;;;;6297605;28;20141;-48
2023/04/26 11:21:05;;;;;;;0.75;0.50;;;22.60;47.40;;;;;;6279021;28;20051;-46
2023/04/26 11:24:08;;;;;;;3.63;0.52;;;22.70;47.70;;;;;;6297107;28;20430;-44
2023/04/26 11:27:10;;;;;;;1.20;0.75;;;22.70;47.80;;;;;;6296210;28;20094;-44
2023/04/26 11:30:12;;;;;;;1.58;0.60;;;23.00;47.90;;;;;;6277746;28;20045;-46
2023/04/26 11:33:18;;;;;;;1.10;0.60;;;22.70;48.00;;;;;;6296738;28;20337;-46
2023/04/26 11:36:23;;;;;;;1.48;0.60;;;22.80;48.20;;;;;;6278977;28;20188;-45
2023/04/26 11:39:24;;;;;;;0.50;0.47;;;23.10;48.60;;;;;;6296948;28;20431;-50
2023/04/26 11:42:26;;;;;;;0.85;0.60;;;23.00;48.60;;;;;;6296681;28;20055;-49
2023/04/26 11:45:27;;;;;;;;;;;22.90;48.70;;;;;;6297333;28;20037;-49
2023/04/26 11:48:31;;;;;;;0.73;0.60;;;22.80;48.70;;;;;;6296854;28;19921;-50
2023/04/26 11:51:33;;;;;;;2.03;0.70;;;22.80;48.50;;;;;;6297112;28;20072;-49
2023/04/26 11:54:36;;;;;;;1.45;0.50;;;22.90;48.70;;;;;;6296393;28;20094;-52
2023/04/26 11:57:38;;;;;;;0.90;0.60;;;22.80;49.10;;;;;;6278951;28;20387;-47
2023/04/26 12:00:55;;;;;;;1.35;0.90;;;22.90;48.80;;;;;;6296617;28;20040;-45
2023/04/26 12:03:58;;;;;;;1.20;0.63;;;22.80;48.80;;;;;;6296436;28;20070;-48
2023/04/26 12:07:03;;;;;;;2.17;0.52;;;22.90;48.90;;;;;;6296557;28;20044;-50
2023/04/26 12:10:22;;;;;;;0.80;0.60;;;23.00;49.00;;;;;;6298687;28;20044;-45
2023/04/26 12:13:24;;;;;;;1.15;0.75;;;22.90;49.00;;;;;;6282889;28;20048;-45
2023/04/26 12:16:26;;;;;;;0.60;0.50;;;22.90;49.00;;;;;;6297292;28;20033;-46
2023/04/26 12:19:31;;;;;;;1.17;0.85;;;23.00;49.00;;;;;;6296291;28;20048;-47
2023/04/26 12:22:34;;;;;;;0.80;0.50;;;23.00;49.00;;;;;;6279740;28;20055;-49
2023/04/26 12:25:37;;;;;;;0.63;0.40;;;23.30;49.10;;;;;;6298910;28;20037;-46
2023/04/26 12:28:38;;;;;;;0.50;0.32;;;23.00;49.00;;;;;;6286725;28;20047;-51
2023/04/26 12:31:42;;;;;;;1.33;0.30;;;23.20;49.20;;;;;;6315313;28;20070;-47
2023/04/26 12:34:43;;;;;;;1.10;0.82;;;23.70;49.60;;;;;;6317798;28;20048;-49
2023/04/26 12:37:48;;;;;;;3.33;0.60;;;23.10;49.20;;;;;;6306738;28;20081;-51
2023/04/26 12:40:50;;;;;;;0.65;0.60;;;23.30;49.20;;;;;;6305549;28;20496;-48
2023/04/26 12:43:51;;;;;;;0.90;0.52;;;23.30;49.20;;;;;;6308377;28;20045;-47
2023/04/26 12:46:55;;;;;;;1.20;0.60;;;23.20;49.30;;;;;;6301513;28;20041;-46
2023/04/26 12:49:57;;;;;;;0.75;0.60;;;23.30;48.90;;;;;;6299907;28;20048;-44
2023/04/26 12:52:59;;;;;;;0.60;0.57;;;23.30;48.90;;;;;;6300154;28;20041;-50
2023/04/26 12:56:01;;;;;;;1.60;0.55;;;23.40;48.90;;;;;;6300780;28;20063;-51
2023/04/26 12:59:03;;;;;;;2.00;0.35;;;23.30;48.90;;;;;;6301092;28;20464;-47
2023/04/26 13:02:04;;;;;;;0.85;0.50;;;23.20;48.80;;;;;;6300047;28;20052;-45
2023/04/26 13:05:07;;;;;;;0.88;0.57;;;23.30;48.90;;;;;;6300181;28;20468;-44
2023/04/26 13:08:11;;;;;;;1.27;0.50;;;23.50;48.90;;;;;;6299895;28;20075;-43
2023/04/26 13:11:13;;;;;;;0.73;0.45;;;23.40;49.00;;;;;;6248978;28;20127;-45
2023/04/26 13:14:15;;;;;;;1.48;0.40;;;23.30;48.80;;;;;;6299988;28;20127;-51
2023/04/26 13:17:17;;;;;;;1.88;0.50;;;23.50;48.90;;;;;;6299796;28;20082;-46
2023/04/26 13:20:21;;;;;;;0.47;0.45;;;23.40;48.80;;;;;;6299335;28;20069;-49
2023/04/26 13:23:24;;;;;;;0.80;0.40;;;23.40;48.80;;;;;;6300112;28;20113;-43
2023/04/26 13:26:26;;;;;;;0.55;0.40;;;23.70;48.80;;;;;;6299403;28;20041;-47
2023/04/26 13:29:30;;;;;;;0.50;0.40;;;23.60;48.70;;;;;;6298996;28;20040;-46
2023/04/26 13:32:31;;;;;;;0.45;0.40;;;23.60;48.70;;;;;;6299201;28;20040;-46
2023/04/26 13:35:33;;;;;;;0.40;0.30;;;23.60;48.60;;;;;;6299699;28;20044;-49
2023/04/26 13:38:35;;;;;;;0.50;0.50;;;23.80;48.70;;;;;;6298943;28;20032;-46
2023/04/26 13:41:37;;;;;;;1.67;0.50;;;23.60;48.60;;;;;;6299218;28;20041;-47
2023/04/26 13:44:38;;;;;;;0.50;0.40;;;23.50;48.50;;;;;;6298791;28;20045;-46
2023/04/26 13:47:40;;;;;;;1.13;0.43;;;23.50;48.50;;;;;;6298629;28;20045;-48
2023/04/26 13:50:41;;;;;;;1.00;0.60;;;23.60;48.50;;;;;;6299045;28;20044;-44
2023/04/26 13:53:43;;;;;;;1.00;0.52;;;23.70;48.50;;;;;;6297400;28;20048;-47
2023/04/26 13:56:45;;;;;;;0.80;0.70;;;23.70;48.50;;;;;;6298720;28;20041;-46
2023/04/26 13:59:46;;;;;;;0.90;0.57;;;23.60;48.70;;;;;;6299008;28;20476;-45
2023/04/26 14:02:48;;;;;;;0.50;0.50;;;23.70;48.50;;;;;;6298480;28;20050;-50
2023/04/26 14:05:49;;;;;;;0.57;0.57;;;23.70;48.50;;;;;;6298509;28;20045;-47
2023/04/26 14:08:52;;;;;;;0.50;0.50;;;24.10;48.80;;;;;;6298719;28;20040;-48
2023/04/26 14:11:53;;;;;;;0.80;0.50;;;23.80;48.60;;;;;;6298258;28;20048;-48
2023/04/26 14:15:09;;;;;;;0.47;0.40;;;23.60;48.50;;;;;;6298313;28;20075;-46
2023/04/26 14:18:13;;;;;;;0.57;0.50;;;23.50;48.40;;;;;;6299466;28;20041;-45
2023/04/26 14:21:15;;;;;;;0.60;0.60;;;23.70;48.60;;;;;;6298700;28;20084;-46
2023/04/26 14:24:17;;;;;;;0.50;0.40;;;23.60;48.60;;;;;;6298055;28;20044;-44
2023/04/26 14:27:21;;;;;;;0.82;0.50;;;23.80;48.70;;;;;;6297619;28;20472;-45
2023/04/26 14:30:23;;;;;;;1.77;0.60;;;24.00;48.90;;;;;;6298365;28;20083;-49
2023/04/26 14:33:24;;;;;;;0.50;0.45;;;22.60;48.30;;;;;;6298196;28;20076;-47
2023/04/26 14:36:27;;;;;;;0.60;0.50;;;24.00;48.90;;;;;;6298082;28;20039;-49
2023/04/26 14:39:29;;;;;;;2.30;0.60;;;23.70;48.70;;;;;;6298232;28;20052;-44
2023/04/26 14:42:33;;;;;;;2.63;0.50;;;24.00;48.80;;;;;;6298825;28;20098;-45
2023/04/26 14:45:35;;;;;;;2.92;0.80;;;23.70;48.70;;;;;;6297538;28;20049;-43
2023/04/26 14:48:47;;;;;;;0.80;0.70;;;23.70;48.60;;;;;;6298170;28;20440;-44
2023/04/26 14:51:49;;;;;;;1.13;0.60;;;23.90;48.60;;;;;;6298066;28;20044;-45
2023/04/26 14:54:54;;;;;;;2.83;1.15;;;24.00;48.70;;;;;;6297683;28;20064;-47
2023/04/26 14:57:56;;;;;;;1.30;0.90;;;23.70;48.50;;;;;;6298029;28;20040;-47
2023/04/26 15:00:57;;;;;;;1.20;0.70;;;23.80;48.60;;;;;;6297634;28;20047;-48
2023/04/26 15:03:59;;;;;;;1.30;0.70;;;23.70;48.50;;;;;;6280567;28;20049;-45
2023/04/26 15:07:04;;;;;;;0.77;0.60;;;24.00;48.70;;;;;;6296406;28;20060;-53
2023/04/26 15:10:07;;;;;;;0.98;0.77;;;23.80;48.50;;;;;;6278937;28;20436;-50
2023/04/26 15:13:09;;;;;;;1.17;0.85;;;23.80;49.10;;;;;;6262770;28;20063;-52
2023/04/26 15:16:10;;;;;;;1.63;0.70;;;23.90;48.50;;;;;;6297435;28;20041;-47
2023/04/26 15:19:12;;;;;;;1.20;0.80;;;23.80;48.50;;;;;;6297071;28;20396;-51
2023/04/26 15:22:13;;;;;;;1.00;0.90;;;24.10;48.70;;;;;;6297432;28;20118;-51
2023/04/26 15:25:16;;;;;;;1.08;0.75;;;24.10;48.70;;;;;;6297903;28;20476;-46
2023/04/26 15:28:18;;;;;;;1.55;0.80;;;24.20;48.70;;;;;;6296708;28;20113;-49
2023/04/26 15:31:20;;;;;;;1.52;0.90;;;23.90;48.50;;;;;;6297328;28;20045;-49
2023/04/26 15:34:24;;;;;;;0.70;0.70;;;24.10;48.60;;;;;;6296847;28;20119;-50
2023/04/26 15:37:25;;;;;;;0.80;0.80;;;24.00;48.60;;;;;;6297820;28;20064;-47
2023/04/26 15:40:27;;;;;;;0.75;0.70;;;24.00;48.70;;;;;;6296714;28;20045;-48
2023/04/26 15:43:29;;;;;;;1.98;0.60;;;24.00;48.50;;;;;;6297551;28;20419;-43
2023/04/26 15:46:33;;;;;;;1.75;0.80;;;24.20;48.60;;;;;;6297210;28;20492;-51
2023/04/26 15:49:35;;;;;;;0.70;0.47;;;24.00;48.60;;;;;;6297647;28;20041;-49
2023/04/26 15:52:37;;;;;;;0.85;0.50;;;24.30;48.80;;;;;;6296964;28;20048;-44
2023/04/26 15:55:44;;;;;;;1.15;0.57;;;23.90;48.60;;;;;;6296635;28;20079;-48
2023/04/26 15:58:46;;;;;;;0.75;0.47;;;24.30;48.70;;;;;;6296452;28;20043;-46
2023/04/26 16:01:48;;;;;;;1.00;0.60;;;24.30;48.80;;;;;;6279025;28;20041;-49
2023/04/26 16:04:49;;;;;;;0.70;0.50;;;24.10;48.70;;;;;;6278504;28;20057;-46